sensor_id;sensor_type;location;lat;lon;timestamp;P1;durP1;ratioP1;P2;durP2;ratioP2
934;SDS011;454;53.254;10.400;2023-08-20T04:02:01;4.27;;;3.87;;
934;SDS011;454;53.254;10.400;2023-08-20T04:04:29;3.27;;;3.03;;
934;SDS011;454;53.254;10.400;2023-08-20T04:06:56;10.73;;;3.30;;
934;SDS011;454;53.254;10.400;2023-08-20T04:09:23;4.13;;;3.80;;
934;SDS011;454;53.254;10.400;2023-08-20T04:11:50;3.80;;;3.20;;
934;SDS011;454;53.254;10.400;2023-08-20T04:14:16;4.20;;;3.30;;
934;SDS011;454;53.254;10.400;2023-08-20T04:16:43;4.00;;;3.70;;
934;SDS011;454;53.254;10.400;2023-08-20T04:19:12;3.93;;;3.60;;
934;SDS011;454;53.254;10.400;2023-08-20T04:24:06;6.00;;;5.50;;
934;SDS011;454;53.254;10.400;2023-08-20T04:26:33;5.57;;;4.20;;
934;SDS011;454;53.254;10.400;2023-08-20T04:29:00;5.53;;;4.67;;
934;SDS011;454;53.254;10.400;2023-08-20T04:31:27;7.60;;;3.97;;
934;SDS011;454;53.254;10.400;2023-08-20T04:33:53;6.07;;;4.03;;
934;SDS011;454;53.254;10.400;2023-08-20T04:36:22;8.17;;;4.13;;
934;SDS011;454;53.254;10.400;2023-08-20T04:38:48;5.87;;;4.33;;
934;SDS011;454;53.254;10.400;2023-08-20T04:41:15;4.77;;;3.27;;
934;SDS011;454;53.254;10.400;2023-08-20T04:43:42;6.63;;;3.50;;
934;SDS011;454;53.254;10.400;2023-08-20T04:46:09;6.10;;;4.20;;
934;SDS011;454;53.254;10.400;2023-08-20T04:48:35;4.67;;;4.00;;
934;SDS011;454;53.254;10.400;2023-08-20T04:51:02;4.87;;;4.30;;
934;SDS011;454;53.254;10.400;2023-08-20T04:53:30;4.70;;;4.17;;
934;SDS011;454;53.254;10.400;2023-08-20T04:55:58;4.57;;;4.10;;
934;SDS011;454;53.254;10.400;2023-08-20T04:58:24;5.10;;;4.17;;
934;SDS011;454;53.254;10.400;2023-08-20T05:00:51;4.53;;;4.20;;
934;SDS011;454;53.254;10.400;2023-08-20T05:03:18;7.67;;;5.83;;
934;SDS011;454;53.254;10.400;2023-08-20T05:05:48;6.33;;;4.40;;
934;SDS011;454;53.254;10.400;2023-08-20T05:08:15;5.20;;;4.33;;
934;SDS011;454;53.254;10.400;2023-08-20T05:14:05;7.00;;;5.73;;
934;SDS011;454;53.254;10.400;2023-08-20T05:16:31;8.10;;;4.90;;
934;SDS011;454;53.254;10.400;2023-08-20T05:18:58;14.27;;;5.00;;
934;SDS011;454;53.254;10.400;2023-08-20T05:21:24;7.13;;;5.53;;
934;SDS011;454;53.254;10.400;2023-08-20T05:23:51;4.53;;;4.10;;
934;SDS011;454;53.254;10.400;2023-08-20T05:26:18;8.50;;;5.37;;
934;SDS011;454;53.254;10.400;2023-08-20T05:28:44;14.23;;;5.83;;
934;SDS011;454;53.254;10.400;2023-08-20T05:31:12;7.90;;;4.70;;
934;SDS011;454;53.254;10.400;2023-08-20T05:33:39;10.03;;;6.93;;
934;SDS011;454;53.254;10.400;2023-08-20T05:36:06;6.30;;;5.67;;
934;SDS011;454;53.254;10.400;2023-08-20T05:38:32;7.93;;;6.03;;
934;SDS011;454;53.254;10.400;2023-08-20T05:40:59;9.77;;;4.90;;
934;SDS011;454;53.254;10.400;2023-08-20T05:43:26;10.27;;;5.73;;
934;SDS011;454;53.254;10.400;2023-08-20T05:45:52;8.73;;;5.27;;
934;SDS011;454;53.254;10.400;2023-08-20T05:48:20;6.57;;;5.97;;
934;SDS011;454;53.254;10.400;2023-08-20T05:50:47;6.33;;;5.33;;
934;SDS011;454;53.254;10.400;2023-08-20T05:53:14;8.33;;;5.57;;
934;SDS011;454;53.254;10.400;2023-08-20T05:55:40;5.93;;;5.33;;
934;SDS011;454;53.254;10.400;2023-08-20T05:58:07;11.47;;;5.70;;
934;SDS011;454;53.254;10.400;2023-08-20T06:00:34;5.97;;;5.13;;
934;SDS011;454;53.254;10.400;2023-08-20T06:03:00;3.90;;;3.70;;
934;SDS011;454;53.254;10.400;2023-08-20T06:05:29;6.00;;;5.40;;
934;SDS011;454;53.254;10.400;2023-08-20T06:07:55;6.93;;;5.53;;
934;SDS011;454;53.254;10.400;2023-08-20T06:10:22;7.37;;;5.30;;
934;SDS011;454;53.254;10.400;2023-08-20T06:12:49;8.77;;;5.40;;
934;SDS011;454;53.254;10.400;2023-08-20T06:15:15;13.13;;;6.73;;
934;SDS011;454;53.254;10.400;2023-08-20T06:17:42;10.13;;;8.13;;
934;SDS011;454;53.254;10.400;2023-08-20T06:20:09;5.80;;;5.30;;
934;SDS011;454;53.254;10.400;2023-08-20T06:22:38;5.20;;;3.63;;
934;SDS011;454;53.254;10.400;2023-08-20T06:25:05;3.00;;;2.80;;
934;SDS011;454;53.254;10.400;2023-08-20T06:27:32;3.20;;;2.90;;
934;SDS011;454;53.254;10.400;2023-08-20T06:29:59;3.00;;;2.57;;
934;SDS011;454;53.254;10.400;2023-08-20T06:32:26;3.03;;;2.70;;
934;SDS011;454;53.254;10.400;2023-08-20T06:34:52;2.87;;;2.77;;
934;SDS011;454;53.254;10.400;2023-08-20T06:37:19;3.27;;;3.00;;
934;SDS011;454;53.254;10.400;2023-08-20T06:39:47;3.23;;;3.00;;
934;SDS011;454;53.254;10.400;2023-08-20T06:42:14;3.30;;;3.07;;
934;SDS011;454;53.254;10.400;2023-08-20T06:44:41;2.30;;;2.20;;
934;SDS011;454;53.254;10.400;2023-08-20T06:47:07;3.40;;;2.73;;
934;SDS011;454;53.254;10.400;2023-08-20T06:49:34;2.23;;;2.13;;
934;SDS011;454;53.254;10.400;2023-08-20T06:52:01;2.57;;;2.47;;
934;SDS011;454;53.254;10.400;2023-08-20T06:54:27;2.67;;;2.57;;
934;SDS011;454;53.254;10.400;2023-08-20T06:56:55;2.90;;;2.70;;
934;SDS011;454;53.254;10.400;2023-08-20T06:59:22;2.30;;;2.17;;
934;SDS011;454;53.254;10.400;2023-08-20T07:01:49;2.00;;;2.00;;
934;SDS011;454;53.254;10.400;2023-08-20T07:04:15;2.27;;;2.17;;
934;SDS011;454;53.254;10.400;2023-08-20T07:06:42;2.17;;;2.17;;
934;SDS011;454;53.254;10.400;2023-08-20T07:09:08;2.60;;;2.50;;
934;SDS011;454;53.254;10.400;2023-08-20T07:11:35;1.27;;;1.27;;
934;SDS011;454;53.254;10.400;2023-08-20T07:14:03;1.60;;;1.50;;
934;SDS011;454;53.254;10.400;2023-08-20T07:16:30;1.43;;;1.43;;
934;SDS011;454;53.254;10.400;2023-08-20T07:18:57;1.77;;;1.77;;
934;SDS011;454;53.254;10.400;2023-08-20T07:21:24;2.00;;;1.90;;
934;SDS011;454;53.254;10.400;2023-08-20T07:23:50;2.23;;;2.00;;
934;SDS011;454;53.254;10.400;2023-08-20T07:26:17;1.93;;;1.93;;
934;SDS011;454;53.254;10.400;2023-08-20T07:28:44;2.10;;;2.00;;
934;SDS011;454;53.254;10.400;2023-08-20T07:31:24;1.97;;;1.80;;
934;SDS011;454;53.254;10.400;2023-08-20T07:33:52;1.60;;;1.50;;
934;SDS011;454;53.254;10.400;2023-08-20T07:36:20;1.37;;;1.37;;
934;SDS011;454;53.254;10.400;2023-08-20T07:38:47;1.10;;;1.10;;
934;SDS011;454;53.254;10.400;2023-08-20T07:41:15;1.43;;;1.43;;
934;SDS011;454;53.254;10.400;2023-08-20T07:43:42;1.50;;;1.50;;
934;SDS011;454;53.254;10.400;2023-08-20T07:46:09;1.30;;;1.30;;
934;SDS011;454;53.254;10.400;2023-08-20T07:48:37;1.00;;;1.00;;
934;SDS011;454;53.254;10.400;2023-08-20T07:51:04;1.13;;;1.13;;
934;SDS011;454;53.254;10.400;2023-08-20T07:53:32;0.87;;;0.87;;
934;SDS011;454;53.254;10.400;2023-08-20T07:55:59;1.50;;;1.40;;
934;SDS011;454;53.254;10.400;2023-08-20T07:58:26;0.97;;;0.97;;
934;SDS011;454;53.254;10.400;2023-08-20T08:00:53;0.80;;;0.73;;
934;SDS011;454;53.254;10.400;2023-08-20T08:03:20;0.60;;;0.60;;
934;SDS011;454;53.254;10.400;2023-08-20T08:05:48;1.40;;;1.40;;
934;SDS011;454;53.254;10.400;2023-08-20T08:08:15;0.97;;;0.97;;
934;SDS011;454;53.254;10.400;2023-08-20T08:10:42;2.93;;;1.27;;
934;SDS011;454;53.254;10.400;2023-08-20T08:13:10;1.53;;;1.37;;
934;SDS011;454;53.254;10.400;2023-08-20T08:15:37;1.83;;;1.73;;
934;SDS011;454;53.254;10.400;2023-08-20T08:18:04;1.80;;;0.80;;
934;SDS011;454;53.254;10.400;2023-08-20T08:20:31;0.80;;;0.80;;
934;SDS011;454;53.254;10.400;2023-08-20T08:22:59;9.27;;;0.90;;
934;SDS011;454;53.254;10.400;2023-08-20T08:25:26;1.63;;;0.97;;
934;SDS011;454;53.254;10.400;2023-08-20T08:27:52;1.83;;;1.30;;
934;SDS011;454;53.254;10.400;2023-08-20T08:30:19;1.70;;;1.57;;
934;SDS011;454;53.254;10.400;2023-08-20T08:32:46;1.00;;;1.00;;
934;SDS011;454;53.254;10.400;2023-08-20T08:35:13;1.37;;;1.30;;
934;SDS011;454;53.254;10.400;2023-08-20T08:37:40;0.90;;;0.90;;
934;SDS011;454;53.254;10.400;2023-08-20T08:40:08;1.90;;;1.47;;
934;SDS011;454;53.254;10.400;2023-08-20T08:42:36;0.90;;;0.90;;
934;SDS011;454;53.254;10.400;2023-08-20T08:45:03;0.87;;;0.87;;
934;SDS011;454;53.254;10.400;2023-08-20T08:47:30;2.27;;;1.40;;
934;SDS011;454;53.254;10.400;2023-08-20T08:49:57;1.90;;;1.80;;
934;SDS011;454;53.254;10.400;2023-08-20T08:52:24;1.40;;;1.20;;
934;SDS011;454;53.254;10.400;2023-08-20T08:54:52;1.30;;;1.30;;
934;SDS011;454;53.254;10.400;2023-08-20T08:57:20;1.40;;;1.40;;
934;SDS011;454;53.254;10.400;2023-08-20T08:59:47;1.53;;;1.53;;
934;SDS011;454;53.254;10.400;2023-08-20T09:02:14;1.10;;;1.10;;
934;SDS011;454;53.254;10.400;2023-08-20T09:04:43;2.40;;;1.30;;
934;SDS011;454;53.254;10.400;2023-08-20T09:07:10;2.30;;;2.20;;
934;SDS011;454;53.254;10.400;2023-08-20T09:09:41;4.83;;;0.97;;
934;SDS011;454;53.254;10.400;2023-08-20T09:12:11;2.40;;;1.10;;
934;SDS011;454;53.254;10.400;2023-08-20T09:14:41;2.87;;;1.50;;
934;SDS011;454;53.254;10.400;2023-08-20T09:17:11;0.70;;;0.70;;
934;SDS011;454;53.254;10.400;2023-08-20T09:19:38;2.93;;;1.43;;
934;SDS011;454;53.254;10.400;2023-08-20T09:22:05;3.63;;;1.80;;
934;SDS011;454;53.254;10.400;2023-08-20T09:24:32;1.20;;;1.20;;
934;SDS011;454;53.254;10.400;2023-08-20T09:27:01;1.90;;;1.30;;
934;SDS011;454;53.254;10.400;2023-08-20T09:29:31;0.93;;;0.90;;
934;SDS011;454;53.254;10.400;2023-08-20T09:32:01;1.33;;;1.23;;
934;SDS011;454;53.254;10.400;2023-08-20T09:34:35;1.70;;;1.70;;
934;SDS011;454;53.254;10.400;2023-08-20T09:37:03;2.93;;;1.67;;
934;SDS011;454;53.254;10.400;2023-08-20T09:39:33;1.50;;;1.43;;
934;SDS011;454;53.254;10.400;2023-08-20T09:42:00;3.07;;;2.40;;
934;SDS011;454;53.254;10.400;2023-08-20T09:44:27;1.70;;;1.60;;
934;SDS011;454;53.254;10.400;2023-08-20T09:47:00;1.87;;;1.60;;
934;SDS011;454;53.254;10.400;2023-08-20T09:49:29;2.47;;;1.60;;
934;SDS011;454;53.254;10.400;2023-08-20T09:52:02;1.20;;;1.20;;
934;SDS011;454;53.254;10.400;2023-08-20T09:54:34;1.40;;;1.40;;
934;SDS011;454;53.254;10.400;2023-08-20T09:57:07;1.07;;;1.07;;
934;SDS011;454;53.254;10.400;2023-08-20T09:59:38;2.10;;;1.67;;
934;SDS011;454;53.254;10.400;2023-08-20T10:02:08;1.50;;;1.50;;
934;SDS011;454;53.254;10.400;2023-08-20T10:04:38;1.63;;;1.53;;
934;SDS011;454;53.254;10.400;2023-08-20T10:07:05;2.83;;;1.90;;
934;SDS011;454;53.254;10.400;2023-08-20T10:09:32;2.33;;;1.20;;
934;SDS011;454;53.254;10.400;2023-08-20T10:11:59;1.00;;;1.00;;
934;SDS011;454;53.254;10.400;2023-08-20T10:14:27;1.17;;;1.17;;
934;SDS011;454;53.254;10.400;2023-08-20T10:16:54;1.10;;;1.10;;
934;SDS011;454;53.254;10.400;2023-08-20T10:19:22;7.43;;;2.37;;
934;SDS011;454;53.254;10.400;2023-08-20T10:21:51;1.40;;;1.30;;
934;SDS011;454;53.254;10.400;2023-08-20T10:24:18;1.80;;;1.40;;
934;SDS011;454;53.254;10.400;2023-08-20T10:26:45;1.97;;;1.43;;
934;SDS011;454;53.254;10.400;2023-08-20T10:32:03;1.80;;;1.80;;
934;SDS011;454;53.254;10.400;2023-08-20T10:34:36;3.63;;;2.03;;
934;SDS011;454;53.254;10.400;2023-08-20T10:37:08;1.03;;;1.03;;
934;SDS011;454;53.254;10.400;2023-08-20T10:39:36;2.30;;;1.70;;
934;SDS011;454;53.254;10.400;2023-08-20T10:42:07;1.80;;;1.80;;
934;SDS011;454;53.254;10.400;2023-08-20T10:47:35;1.20;;;1.10;;
934;SDS011;454;53.254;10.400;2023-08-20T10:50:10;1.50;;;1.50;;
934;SDS011;454;53.254;10.400;2023-08-20T10:52:38;1.70;;;1.60;;
934;SDS011;454;53.254;10.400;2023-08-20T10:55:06;2.50;;;1.67;;
934;SDS011;454;53.254;10.400;2023-08-20T10:57:34;1.63;;;1.53;;
934;SDS011;454;53.254;10.400;2023-08-20T11:00:02;1.40;;;1.40;;
934;SDS011;454;53.254;10.400;2023-08-20T11:02:36;2.53;;;1.70;;
934;SDS011;454;53.254;10.400;2023-08-20T11:05:03;1.23;;;1.23;;
934;SDS011;454;53.254;10.400;2023-08-20T11:07:43;2.03;;;1.83;;
934;SDS011;454;53.254;10.400;2023-08-20T11:10:12;1.70;;;1.60;;
934;SDS011;454;53.254;10.400;2023-08-20T11:12:40;1.77;;;1.73;;
934;SDS011;454;53.254;10.400;2023-08-20T11:15:08;1.63;;;1.53;;
934;SDS011;454;53.254;10.400;2023-08-20T11:17:39;1.60;;;1.50;;
934;SDS011;454;53.254;10.400;2023-08-20T11:20:07;8.17;;;2.00;;
934;SDS011;454;53.254;10.400;2023-08-20T11:22:34;3.07;;;1.70;;
934;SDS011;454;53.254;10.400;2023-08-20T11:25:03;2.13;;;2.03;;
934;SDS011;454;53.254;10.400;2023-08-20T11:27:30;1.40;;;1.33;;
934;SDS011;454;53.254;10.400;2023-08-20T11:29:57;1.43;;;1.43;;
934;SDS011;454;53.254;10.400;2023-08-20T11:32:24;1.80;;;1.60;;
934;SDS011;454;53.254;10.400;2023-08-20T11:34:50;1.70;;;1.70;;
934;SDS011;454;53.254;10.400;2023-08-20T11:37:19;1.70;;;1.70;;
934;SDS011;454;53.254;10.400;2023-08-20T11:39:47;4.00;;;1.60;;
934;SDS011;454;53.254;10.400;2023-08-20T11:42:15;1.53;;;1.53;;
934;SDS011;454;53.254;10.400;2023-08-20T11:44:42;1.73;;;1.63;;
934;SDS011;454;53.254;10.400;2023-08-20T11:47:14;1.70;;;1.60;;
934;SDS011;454;53.254;10.400;2023-08-20T11:49:41;1.53;;;1.43;;
934;SDS011;454;53.254;10.400;2023-08-20T11:52:07;1.73;;;1.63;;
934;SDS011;454;53.254;10.400;2023-08-20T11:54:35;1.80;;;1.70;;
934;SDS011;454;53.254;10.400;2023-08-20T11:57:02;1.40;;;1.30;;
934;SDS011;454;53.254;10.400;2023-08-20T11:59:31;2.03;;;1.93;;
934;SDS011;454;53.254;10.400;2023-08-20T12:01:58;1.40;;;1.30;;
934;SDS011;454;53.254;10.400;2023-08-20T12:04:27;2.30;;;1.87;;
934;SDS011;454;53.254;10.400;2023-08-20T12:07:01;1.60;;;1.60;;
934;SDS011;454;53.254;10.400;2023-08-20T12:09:30;1.50;;;1.50;;
934;SDS011;454;53.254;10.400;2023-08-20T12:11:57;1.70;;;1.70;;
934;SDS011;454;53.254;10.400;2023-08-20T12:14:24;1.63;;;1.63;;
934;SDS011;454;53.254;10.400;2023-08-20T12:16:52;1.83;;;1.77;;
934;SDS011;454;53.254;10.400;2023-08-20T12:19:20;1.30;;;1.30;;
934;SDS011;454;53.254;10.400;2023-08-20T12:21:46;1.60;;;1.60;;
934;SDS011;454;53.254;10.400;2023-08-20T12:24:13;1.53;;;1.53;;
934;SDS011;454;53.254;10.400;2023-08-20T12:26:40;4.87;;;1.70;;
934;SDS011;454;53.254;10.400;2023-08-20T12:29:07;1.83;;;1.77;;
934;SDS011;454;53.254;10.400;2023-08-20T12:31:35;1.47;;;1.37;;
934;SDS011;454;53.254;10.400;2023-08-20T12:34:03;1.60;;;1.60;;
934;SDS011;454;53.254;10.400;2023-08-20T12:36:29;1.80;;;1.70;;
934;SDS011;454;53.254;10.400;2023-08-20T12:38:56;1.53;;;1.43;;
934;SDS011;454;53.254;10.400;2023-08-20T12:41:23;1.80;;;1.50;;
934;SDS011;454;53.254;10.400;2023-08-20T12:43:49;2.30;;;2.00;;
934;SDS011;454;53.254;10.400;2023-08-20T12:46:16;2.20;;;1.60;;
934;SDS011;454;53.254;10.400;2023-08-20T12:48:43;1.30;;;1.30;;
934;SDS011;454;53.254;10.400;2023-08-20T12:51:11;2.83;;;1.93;;
934;SDS011;454;53.254;10.400;2023-08-20T12:53:38;2.00;;;2.00;;
934;SDS011;454;53.254;10.400;2023-08-20T12:56:05;1.43;;;1.43;;
934;SDS011;454;53.254;10.400;2023-08-20T12:58:32;1.70;;;1.70;;
934;SDS011;454;53.254;10.400;2023-08-20T13:00:59;1.30;;;1.20;;
934;SDS011;454;53.254;10.400;2023-08-20T13:03:26;1.50;;;1.50;;
934;SDS011;454;53.254;10.400;2023-08-20T13:05:53;1.90;;;1.80;;
934;SDS011;454;53.254;10.400;2023-08-20T13:08:23;1.83;;;1.73;;
934;SDS011;454;53.254;10.400;2023-08-20T13:10:52;1.70;;;1.70;;
934;SDS011;454;53.254;10.400;2023-08-20T13:13:21;2.23;;;1.63;;
934;SDS011;454;53.254;10.400;2023-08-20T13:15:49;2.10;;;1.90;;
934;SDS011;454;53.254;10.400;2023-08-20T13:18:17;1.30;;;1.30;;
934;SDS011;454;53.254;10.400;2023-08-20T13:20:44;2.70;;;1.90;;
934;SDS011;454;53.254;10.400;2023-08-20T13:23:11;1.40;;;1.30;;
934;SDS011;454;53.254;10.400;2023-08-20T13:25:39;1.43;;;1.40;;
934;SDS011;454;53.254;10.400;2023-08-20T13:28:05;1.83;;;1.70;;
934;SDS011;454;53.254;10.400;2023-08-20T13:30:32;1.50;;;1.50;;
934;SDS011;454;53.254;10.400;2023-08-20T13:32:59;1.23;;;1.23;;
934;SDS011;454;53.254;10.400;2023-08-20T13:35:26;1.90;;;1.50;;
934;SDS011;454;53.254;10.400;2023-08-20T13:37:53;1.53;;;1.53;;
934;SDS011;454;53.254;10.400;2023-08-20T13:40:20;1.00;;;1.00;;
934;SDS011;454;53.254;10.400;2023-08-20T13:42:48;1.80;;;1.80;;
934;SDS011;454;53.254;10.400;2023-08-20T13:45:14;1.30;;;1.30;;
934;SDS011;454;53.254;10.400;2023-08-20T13:47:41;1.23;;;1.23;;
934;SDS011;454;53.254;10.400;2023-08-20T13:50:09;1.30;;;1.17;;
934;SDS011;454;53.254;10.400;2023-08-20T13:52:36;1.60;;;1.60;;
934;SDS011;454;53.254;10.400;2023-08-20T13:55:03;2.57;;;2.33;;
934;SDS011;454;53.254;10.400;2023-08-20T13:57:30;2.43;;;1.90;;
934;SDS011;454;53.254;10.400;2023-08-20T13:59:58;1.83;;;1.73;;
934;SDS011;454;53.254;10.400;2023-08-20T14:02:25;1.30;;;1.30;;
934;SDS011;454;53.254;10.400;2023-08-20T14:04:51;1.50;;;1.50;;
934;SDS011;454;53.254;10.400;2023-08-20T14:07:18;1.80;;;1.63;;
934;SDS011;454;53.254;10.400;2023-08-20T14:09:45;1.70;;;1.70;;
934;SDS011;454;53.254;10.400;2023-08-20T14:12:11;1.50;;;1.40;;
934;SDS011;454;53.254;10.400;2023-08-20T14:14:39;1.80;;;1.60;;
934;SDS011;454;53.254;10.400;2023-08-20T14:17:07;1.60;;;1.50;;
934;SDS011;454;53.254;10.400;2023-08-20T14:19:34;2.03;;;1.80;;
934;SDS011;454;53.254;10.400;2023-08-20T14:22:00;1.10;;;1.10;;
934;SDS011;454;53.254;10.400;2023-08-20T14:24:27;1.60;;;1.60;;
934;SDS011;454;53.254;10.400;2023-08-20T14:26:54;1.63;;;1.60;;
934;SDS011;454;53.254;10.400;2023-08-20T14:29:20;1.30;;;1.30;;
934;SDS011;454;53.254;10.400;2023-08-20T14:31:47;1.50;;;1.50;;
934;SDS011;454;53.254;10.400;2023-08-20T14:34:15;1.70;;;1.60;;
934;SDS011;454;53.254;10.400;2023-08-20T14:36:42;1.77;;;1.67;;
934;SDS011;454;53.254;10.400;2023-08-20T14:39:09;1.37;;;1.33;;
934;SDS011;454;53.254;10.400;2023-08-20T14:41:35;1.83;;;1.77;;
934;SDS011;454;53.254;10.400;2023-08-20T14:44:02;1.23;;;1.23;;
934;SDS011;454;53.254;10.400;2023-08-20T14:46:29;1.93;;;1.70;;
934;SDS011;454;53.254;10.400;2023-08-20T14:48:56;1.60;;;1.50;;
934;SDS011;454;53.254;10.400;2023-08-20T14:51:24;1.53;;;1.53;;
934;SDS011;454;53.254;10.400;2023-08-20T14:53:51;1.30;;;1.30;;
934;SDS011;454;53.254;10.400;2023-08-20T14:56:17;3.70;;;1.90;;
934;SDS011;454;53.254;10.400;2023-08-20T14:58:44;2.00;;;1.90;;
934;SDS011;454;53.254;10.400;2023-08-20T15:01:11;1.77;;;1.77;;
934;SDS011;454;53.254;10.400;2023-08-20T15:03:37;1.93;;;1.53;;
934;SDS011;454;53.254;10.400;2023-08-20T15:06:04;1.70;;;1.60;;
934;SDS011;454;53.254;10.400;2023-08-20T15:08:32;2.23;;;1.47;;
934;SDS011;454;53.254;10.400;2023-08-20T15:11:00;1.77;;;1.77;;
934;SDS011;454;53.254;10.400;2023-08-20T15:13:28;1.73;;;1.60;;
934;SDS011;454;53.254;10.400;2023-08-20T15:15:55;1.60;;;1.60;;
934;SDS011;454;53.254;10.400;2023-08-20T15:18:22;1.70;;;1.70;;
934;SDS011;454;53.254;10.400;2023-08-20T15:20:53;1.50;;;1.50;;
934;SDS011;454;53.254;10.400;2023-08-20T15:23:20;2.13;;;2.03;;
934;SDS011;454;53.254;10.400;2023-08-20T15:25:48;1.50;;;1.50;;
934;SDS011;454;53.254;10.400;2023-08-20T15:28:17;2.10;;;1.90;;
934;SDS011;454;53.254;10.400;2023-08-20T15:30:43;1.50;;;1.50;;
934;SDS011;454;53.254;10.400;2023-08-20T15:33:10;1.70;;;1.60;;
934;SDS011;454;53.254;10.400;2023-08-20T15:35:39;1.33;;;1.33;;
934;SDS011;454;53.254;10.400;2023-08-20T15:38:05;1.77;;;1.77;;
934;SDS011;454;53.254;10.400;2023-08-20T15:40:32;1.40;;;1.40;;
934;SDS011;454;53.254;10.400;2023-08-20T15:43:00;1.80;;;1.80;;
934;SDS011;454;53.254;10.400;2023-08-20T15:45:27;1.67;;;1.67;;
934;SDS011;454;53.254;10.400;2023-08-20T15:47:54;2.20;;;1.77;;
934;SDS011;454;53.254;10.400;2023-08-20T15:50:21;1.80;;;1.80;;
934;SDS011;454;53.254;10.400;2023-08-20T15:52:47;1.57;;;1.50;;
934;SDS011;454;53.254;10.400;2023-08-20T15:55:14;2.20;;;2.10;;
934;SDS011;454;53.254;10.400;2023-08-20T15:57:41;2.13;;;1.67;;
934;SDS011;454;53.254;10.400;2023-08-20T16:00:10;1.60;;;1.50;;
934;SDS011;454;53.254;10.400;2023-08-20T16:02:40;2.40;;;1.70;;
934;SDS011;454;53.254;10.400;2023-08-20T16:05:07;1.37;;;1.37;;
934;SDS011;454;53.254;10.400;2023-08-20T16:07:34;1.87;;;1.77;;
934;SDS011;454;53.254;10.400;2023-08-20T16:10:01;1.73;;;1.73;;
934;SDS011;454;53.254;10.400;2023-08-20T16:12:29;1.23;;;1.23;;
934;SDS011;454;53.254;10.400;2023-08-20T16:14:55;2.10;;;2.00;;
934;SDS011;454;53.254;10.400;2023-08-20T16:17:23;1.97;;;1.97;;
934;SDS011;454;53.254;10.400;2023-08-20T16:19:50;1.83;;;1.83;;
934;SDS011;454;53.254;10.400;2023-08-20T16:22:17;2.07;;;1.97;;
934;SDS011;454;53.254;10.400;2023-08-20T16:24:43;1.80;;;1.70;;
934;SDS011;454;53.254;10.400;2023-08-20T16:27:10;2.40;;;2.30;;
934;SDS011;454;53.254;10.400;2023-08-20T16:29:37;2.30;;;2.20;;
934;SDS011;454;53.254;10.400;2023-08-20T16:32:04;3.77;;;3.67;;
934;SDS011;454;53.254;10.400;2023-08-20T16:34:32;3.00;;;2.90;;
934;SDS011;454;53.254;10.400;2023-08-20T16:36:58;2.80;;;2.67;;
934;SDS011;454;53.254;10.400;2023-08-20T16:39:25;2.40;;;2.30;;
934;SDS011;454;53.254;10.400;2023-08-20T16:41:52;2.37;;;2.33;;
934;SDS011;454;53.254;10.400;2023-08-20T16:44:19;2.37;;;2.17;;
934;SDS011;454;53.254;10.400;2023-08-20T16:46:45;5.63;;;2.83;;
934;SDS011;454;53.254;10.400;2023-08-20T16:49:12;2.13;;;2.13;;
934;SDS011;454;53.254;10.400;2023-08-20T16:51:40;2.90;;;2.70;;
934;SDS011;454;53.254;10.400;2023-08-20T16:54:07;2.80;;;2.70;;
934;SDS011;454;53.254;10.400;2023-08-20T16:56:34;3.27;;;3.17;;
934;SDS011;454;53.254;10.400;2023-08-20T16:59:00;2.93;;;2.93;;
934;SDS011;454;53.254;10.400;2023-08-20T17:01:27;3.33;;;2.90;;
934;SDS011;454;53.254;10.400;2023-08-20T17:03:54;2.87;;;2.77;;
934;SDS011;454;53.254;10.400;2023-08-20T17:06:21;2.57;;;2.47;;
934;SDS011;454;53.254;10.400;2023-08-20T17:08:49;2.57;;;2.50;;
934;SDS011;454;53.254;10.400;2023-08-20T17:11:16;2.47;;;2.43;;
934;SDS011;454;53.254;10.400;2023-08-20T17:13:42;2.40;;;2.40;;
934;SDS011;454;53.254;10.400;2023-08-20T17:16:09;4.73;;;4.47;;
934;SDS011;454;53.254;10.400;2023-08-20T17:18:36;5.30;;;4.60;;
934;SDS011;454;53.254;10.400;2023-08-20T17:21:02;5.70;;;5.30;;
934;SDS011;454;53.254;10.400;2023-08-20T17:23:29;12.13;;;9.60;;
934;SDS011;454;53.254;10.400;2023-08-20T17:26:00;7.93;;;6.53;;
934;SDS011;454;53.254;10.400;2023-08-20T17:28:27;3.27;;;3.07;;
934;SDS011;454;53.254;10.400;2023-08-20T17:30:53;3.20;;;3.10;;
934;SDS011;454;53.254;10.400;2023-08-20T17:33:20;3.13;;;3.03;;
934;SDS011;454;53.254;10.400;2023-08-20T17:35:47;5.47;;;3.27;;
934;SDS011;454;53.254;10.400;2023-08-20T17:38:14;4.37;;;2.73;;
934;SDS011;454;53.254;10.400;2023-08-20T17:40:42;2.57;;;2.57;;
934;SDS011;454;53.254;10.400;2023-08-20T17:43:10;2.80;;;2.60;;
934;SDS011;454;53.254;10.400;2023-08-20T17:45:38;5.00;;;2.60;;
934;SDS011;454;53.254;10.400;2023-08-20T17:48:05;2.63;;;2.53;;
934;SDS011;454;53.254;10.400;2023-08-20T17:50:33;2.57;;;2.47;;
934;SDS011;454;53.254;10.400;2023-08-20T17:53:00;2.63;;;2.17;;
934;SDS011;454;53.254;10.400;2023-08-20T17:55:29;2.73;;;2.63;;
934;SDS011;454;53.254;10.400;2023-08-20T17:57:56;3.80;;;3.60;;
934;SDS011;454;53.254;10.400;2023-08-20T18:00:24;2.70;;;2.50;;
934;SDS011;454;53.254;10.400;2023-08-20T18:02:51;2.63;;;2.53;;
934;SDS011;454;53.254;10.400;2023-08-20T18:05:18;2.43;;;2.20;;
934;SDS011;454;53.254;10.400;2023-08-20T18:07:44;2.40;;;2.30;;
934;SDS011;454;53.254;10.400;2023-08-20T18:10:11;2.43;;;2.33;;
934;SDS011;454;53.254;10.400;2023-08-20T18:12:38;2.43;;;2.33;;
934;SDS011;454;53.254;10.400;2023-08-20T18:15:05;9.67;;;5.17;;
934;SDS011;454;53.254;10.400;2023-08-20T18:17:33;3.20;;;3.00;;
934;SDS011;454;53.254;10.400;2023-08-20T18:20:00;2.93;;;2.70;;
934;SDS011;454;53.254;10.400;2023-08-20T18:22:28;2.87;;;2.13;;
934;SDS011;454;53.254;10.400;2023-08-20T18:24:55;2.43;;;2.20;;
934;SDS011;454;53.254;10.400;2023-08-20T18:27:22;2.47;;;2.40;;
934;SDS011;454;53.254;10.400;2023-08-20T18:29:48;4.10;;;2.50;;
934;SDS011;454;53.254;10.400;2023-08-20T18:32:15;2.70;;;2.60;;
934;SDS011;454;53.254;10.400;2023-08-20T18:34:43;2.30;;;2.30;;
934;SDS011;454;53.254;10.400;2023-08-20T18:37:10;2.63;;;2.53;;
934;SDS011;454;53.254;10.400;2023-08-20T18:39:36;2.60;;;2.43;;
934;SDS011;454;53.254;10.400;2023-08-20T18:42:03;2.40;;;2.40;;
934;SDS011;454;53.254;10.400;2023-08-20T18:44:30;2.83;;;2.67;;
934;SDS011;454;53.254;10.400;2023-08-20T18:46:57;2.70;;;2.50;;
934;SDS011;454;53.254;10.400;2023-08-20T18:49:24;2.80;;;2.13;;
934;SDS011;454;53.254;10.400;2023-08-20T18:51:52;2.30;;;2.20;;
934;SDS011;454;53.254;10.400;2023-08-20T18:54:19;3.30;;;3.00;;
934;SDS011;454;53.254;10.400;2023-08-20T18:56:46;4.43;;;3.20;;
934;SDS011;454;53.254;10.400;2023-08-20T18:59:12;3.43;;;3.13;;
934;SDS011;454;53.254;10.400;2023-08-20T19:01:39;4.20;;;3.90;;
934;SDS011;454;53.254;10.400;2023-08-20T19:04:06;3.10;;;2.90;;
934;SDS011;454;53.254;10.400;2023-08-20T19:06:33;4.80;;;3.37;;
934;SDS011;454;53.254;10.400;2023-08-20T19:09:02;2.13;;;2.00;;
934;SDS011;454;53.254;10.400;2023-08-20T19:11:31;2.90;;;2.47;;
934;SDS011;454;53.254;10.400;2023-08-20T19:13:57;2.53;;;2.43;;
934;SDS011;454;53.254;10.400;2023-08-20T19:16:24;2.93;;;2.63;;
934;SDS011;454;53.254;10.400;2023-08-20T19:18:51;1.90;;;1.90;;
934;SDS011;454;53.254;10.400;2023-08-20T19:21:18;1.63;;;1.63;;
934;SDS011;454;53.254;10.400;2023-08-20T19:23:45;2.97;;;2.23;;
934;SDS011;454;53.254;10.400;2023-08-20T19:26:13;1.60;;;1.50;;
934;SDS011;454;53.254;10.400;2023-08-20T19:28:40;1.80;;;1.80;;
934;SDS011;454;53.254;10.400;2023-08-20T19:31:06;1.63;;;1.63;;
934;SDS011;454;53.254;10.400;2023-08-20T19:33:33;1.87;;;1.80;;
934;SDS011;454;53.254;10.400;2023-08-20T19:36:00;1.70;;;1.60;;
934;SDS011;454;53.254;10.400;2023-08-20T19:38:28;1.30;;;1.30;;
934;SDS011;454;53.254;10.400;2023-08-20T19:40:55;1.80;;;1.70;;
934;SDS011;454;53.254;10.400;2023-08-20T19:43:23;1.53;;;1.53;;